createdAt,value
2023-04-02T00:02:22.345Z,0.60
2023-04-02T00:05:30.655Z,0.47
2023-04-02T00:08:41.282Z,0.57
2023-04-02T00:11:54.893Z,0.47
2023-04-02T00:14:58.923Z,0.57
2023-04-02T00:18:02.848Z,0.35
2023-04-02T00:21:10.636Z,0.50
2023-04-02T00:24:20.362Z,0.57
2023-04-02T00:27:23.694Z,0.50
2023-04-02T00:30:27.186Z,0.50
2023-04-02T00:33:32.419Z,0.60
2023-04-02T00:36:36.963Z,0.40
2023-04-02T00:39:42.684Z,0.40
2023-04-02T00:42:46.772Z,0.30
2023-04-02T00:45:56.511Z,0.60
2023-04-02T00:49:34.232Z,0.40
2023-04-02T00:52:39.167Z,0.40
2023-04-02T00:55:42.789Z,0.50
2023-04-02T00:58:50.949Z,0.50
2023-04-02T01:02:01.933Z,0.65
2023-04-02T01:05:17.924Z,0.60
2023-04-02T01:08:34.295Z,0.60
2023-04-02T01:11:52.301Z,0.57
2023-04-02T01:15:20.069Z,0.77
2023-04-02T01:19:27.340Z,0.70
2023-04-02T01:22:59.627Z,0.65
2023-04-02T01:26:27.450Z,0.93
2023-04-02T01:29:42.091Z,0.70
2023-04-02T01:32:45.844Z,0.65
2023-04-02T01:35:57.426Z,0.70
2023-04-02T03:04:42.276Z,1.62
2023-04-02T03:07:47.384Z,1.60
2023-04-02T03:11:08.167Z,1.83
2023-04-02T03:14:23.142Z,1.27
2023-04-02T03:17:51.727Z,1.20
2023-04-02T03:21:13.071Z,1.20
2023-04-02T03:24:32.818Z,1.40
2023-04-02T03:27:41.732Z,1.08
2023-04-02T03:30:53.522Z,1.00
2023-04-02T03:34:08.548Z,1.03
2023-04-02T03:37:30.150Z,0.88
2023-04-02T03:40:39.388Z,1.10
2023-04-02T03:43:47.908Z,1.00
2023-04-02T03:46:58.961Z,1.20
2023-04-02T03:50:41.467Z,1.00
2023-04-02T03:53:45.388Z,1.30
2023-04-02T03:56:49.363Z,1.20
2023-04-02T04:00:14.539Z,1.00
2023-04-02T04:03:21.936Z,1.12
2023-04-02T04:06:31.945Z,0.93
2023-04-02T04:09:41.296Z,1.05
2023-04-02T04:12:47.989Z,0.90
2023-04-02T04:16:08.096Z,1.15
2023-04-02T04:19:19.568Z,1.40
2023-04-02T04:22:30.650Z,1.50
2023-04-02T04:25:35.222Z,1.45
2023-04-02T04:28:58.506Z,1.40
2023-04-02T04:32:33.883Z,1.40
2023-04-02T04:35:40.411Z,1.15
2023-04-02T04:38:59.518Z,1.47
2023-04-02T04:42:07.422Z,1.15
2023-04-02T04:45:37.444Z,1.52
2023-04-02T04:48:50.482Z,1.70
2023-04-02T04:52:12.317Z,1.40
2023-04-02T04:55:29.543Z,1.70
2023-04-02T04:58:46.296Z,1.52
2023-04-02T05:02:11.827Z,1.87
2023-04-02T05:05:22.046Z,2.10
2023-04-02T05:08:33.841Z,5.30
2023-04-02T05:11:43.009Z,5.73
2023-04-02T05:14:56.887Z,2.20
2023-04-02T05:18:28.082Z,1.80
2023-04-02T05:21:49.377Z,1.30
2023-04-02T05:25:11.308Z,1.60
2023-04-02T05:28:37.320Z,1.23
2023-04-02T05:31:49.080Z,1.55
2023-04-02T05:34:57.436Z,1.50
2023-04-02T05:38:02.434Z,1.20
2023-04-02T05:41:14.649Z,1.55
2023-04-02T05:44:26.889Z,1.60
2023-04-02T05:47:32.420Z,2.35
2023-04-02T05:50:43.259Z,1.80
2023-04-02T05:53:57.099Z,1.62
2023-04-02T05:57:14.292Z,3.65
2023-04-02T06:00:39.611Z,1.97
2023-04-02T06:04:21.737Z,1.52
2023-04-02T06:07:32.244Z,1.90
2023-04-02T06:10:46.674Z,1.90
2023-04-02T06:13:49.518Z,1.75
2023-04-02T06:16:52.978Z,2.00
2023-04-02T06:19:58.699Z,1.70
2023-04-02T06:23:12.798Z,1.65
2023-04-02T06:26:21.704Z,3.55
2023-04-02T06:29:30.713Z,3.37
2023-04-02T06:32:33.705Z,1.90
2023-04-02T06:35:40.496Z,1.67
2023-04-02T06:38:44.349Z,1.30
2023-04-02T06:41:59.971Z,1.77
2023-04-02T06:45:03.758Z,1.75
2023-04-02T06:48:21.162Z,1.50
2023-04-02T06:51:28.589Z,1.70
2023-04-02T06:54:32.053Z,1.50
2023-04-02T06:57:36.033Z,1.70
2023-04-02T07:00:42.792Z,1.50
2023-04-02T07:03:46.885Z,1.43
2023-04-02T07:06:51.406Z,1.10
2023-04-02T07:09:54.404Z,1.40
2023-04-02T07:12:58.294Z,0.88
2023-04-02T07:16:01.471Z,1.50
2023-04-02T07:19:05.998Z,1.10
2023-04-02T07:22:09.095Z,1.35
2023-04-02T07:25:12.722Z,1.10
2023-04-02T07:28:15.696Z,1.25
2023-04-02T07:31:19.890Z,1.30
2023-04-02T07:34:22.558Z,1.30
2023-04-02T07:37:25.524Z,1.50
2023-04-02T07:40:28.084Z,1.37
2023-04-02T07:43:31.427Z,1.30
2023-04-02T07:46:34.019Z,1.02
2023-04-02T07:49:37.342Z,1.30
2023-04-02T07:52:44.818Z,1.20
2023-04-02T07:55:52.881Z,1.25
2023-04-02T07:58:56.050Z,1.20
2023-04-02T08:01:59.866Z,1.33
2023-04-02T08:05:02.980Z,1.30
2023-04-02T08:08:06.234Z,1.45
2023-04-02T08:11:09.991Z,1.55
2023-04-02T08:14:12.551Z,1.50
2023-04-02T08:17:16.732Z,1.30
2023-04-02T08:20:22.243Z,1.50
2023-04-02T08:23:26.250Z,1.50
2023-04-02T08:26:28.772Z,1.40
2023-04-02T08:29:32.639Z,1.35
2023-04-02T08:32:35.577Z,1.10
2023-04-02T08:35:38.803Z,3.00
2023-04-02T08:38:43.331Z,2.00
2023-04-02T08:42:29.231Z,2.00
2023-04-02T08:45:50.106Z,1.40
2023-04-02T08:49:00.986Z,1.73
2023-04-02T08:52:04.379Z,1.90
2023-04-02T08:55:43.159Z,1.87
2023-04-02T08:58:54.235Z,1.35
2023-04-02T09:02:06.630Z,2.00
2023-04-02T09:05:19.311Z,1.73
2023-04-02T09:08:25.427Z,1.17
2023-04-02T09:11:55.068Z,1.15
2023-04-02T09:15:22.777Z,2.10
2023-04-02T09:18:30.969Z,1.55
2023-04-02T09:21:42.208Z,1.55
2023-04-02T09:24:45.057Z,1.13
2023-04-02T09:27:56.724Z,1.77
2023-04-02T09:31:18.311Z,1.10
2023-04-02T09:34:32.429Z,1.60
2023-04-02T09:37:35.171Z,1.70
2023-04-02T09:41:07.489Z,1.93
2023-04-02T09:44:26.542Z,2.00
2023-04-02T09:47:32.309Z,1.70
2023-04-02T09:50:35.259Z,1.40
2023-04-02T09:53:46.752Z,1.92
2023-04-02T09:57:02.473Z,1.67
2023-04-02T10:00:25.294Z,1.55
2023-04-02T10:03:34.653Z,1.70
2023-04-02T10:06:37.561Z,1.33
2023-04-02T10:09:40.620Z,1.92
2023-04-02T10:12:48.956Z,2.43
2023-04-02T10:16:01.383Z,1.50
2023-04-02T10:19:13.660Z,1.98
2023-04-02T10:22:19.239Z,2.25
2023-04-02T10:25:25.667Z,2.30
2023-04-02T10:28:40.459Z,1.70
2023-04-02T10:32:02.461Z,1.70
2023-04-02T10:35:40.621Z,1.83
2023-04-02T10:38:56.195Z,1.95
2023-04-02T10:42:13.782Z,2.80
2023-04-02T10:45:45.506Z,2.03
2023-04-02T10:48:54.749Z,2.30
2023-04-02T10:52:13.721Z,2.28
2023-04-02T10:55:25.614Z,1.60
2023-04-02T10:58:31.967Z,2.53
2023-04-02T11:01:36.694Z,2.20
2023-04-02T11:04:46.466Z,3.12
2023-04-02T11:08:27.738Z,2.35
2023-04-02T11:11:36.862Z,2.47
2023-04-02T11:14:41.174Z,2.40
2023-04-02T11:17:46.017Z,2.43
2023-04-02T11:20:49.050Z,2.62
2023-04-02T11:24:01.515Z,2.00
2023-04-02T11:27:14.588Z,2.58
2023-04-02T11:30:25.740Z,2.90
2023-04-02T11:33:37.713Z,2.53
2023-04-02T11:36:51.195Z,3.40
2023-04-02T11:39:56.965Z,2.70
2023-04-02T11:43:32.404Z,2.55
2023-04-02T11:46:45.744Z,2.10
2023-04-02T11:50:01.967Z,2.20
2023-04-02T11:53:17.587Z,2.12
2023-04-02T11:56:36.810Z,2.42
2023-04-02T11:59:56.417Z,2.65
2023-04-02T12:03:38.857Z,2.58
2023-04-02T12:06:50.496Z,2.57
2023-04-02T12:09:57.009Z,2.30
2023-04-02T12:13:00.417Z,2.58
2023-04-02T12:16:03.758Z,2.67
2023-04-02T12:19:09.609Z,2.12
2023-04-02T12:22:33.056Z,2.40
2023-04-02T12:25:41.297Z,2.50
2023-04-02T12:28:46.567Z,2.10
2023-04-02T12:31:50.021Z,1.80
2023-04-02T12:34:54.410Z,1.62
2023-04-02T12:37:58.209Z,1.47
2023-04-02T12:41:03.971Z,1.20
2023-04-02T12:44:15.686Z,1.83
2023-04-02T12:47:18.363Z,1.62
2023-04-02T12:50:23.106Z,2.30
2023-04-02T12:53:29.654Z,2.30
2023-04-02T12:56:33.193Z,2.10
2023-04-02T12:59:39.191Z,2.70
2023-04-02T13:02:47.599Z,1.75
2023-04-02T13:05:57.204Z,1.95
2023-04-02T13:09:02.279Z,2.47
2023-04-02T13:12:05.788Z,2.28
2023-04-02T13:15:23.036Z,1.95
2023-04-02T13:18:25.640Z,2.30
2023-04-02T13:21:32.312Z,4.07
2023-04-02T13:24:34.992Z,1.70
2023-04-02T13:27:38.279Z,1.87
2023-04-02T13:30:41.735Z,2.40
2023-04-02T13:33:44.729Z,2.62
2023-04-02T13:36:48.096Z,3.10
2023-04-02T13:39:51.181Z,2.17
2023-04-02T13:42:54.056Z,3.08
2023-04-02T13:49:05.828Z,3.53
2023-04-02T13:52:15.795Z,3.10
2023-04-02T13:55:22.191Z,3.10
2023-04-02T13:58:25.855Z,3.00
2023-04-02T14:01:29.283Z,3.12
2023-04-02T14:04:39.323Z,3.12
2023-04-02T14:08:08.849Z,2.92
2023-04-02T14:11:36.031Z,2.50
2023-04-02T14:14:47.705Z,1.75
2023-04-02T14:18:05.620Z,2.20
2023-04-02T14:21:44.260Z,2.37
2023-04-02T14:25:19.835Z,2.70
2023-04-02T14:28:45.041Z,2.60
2023-04-02T14:32:03.932Z,2.60
2023-04-02T14:35:29.086Z,1.85
2023-04-02T14:39:29.816Z,2.47
2023-04-02T14:43:02.040Z,3.20
2023-04-02T14:46:28.758Z,2.20
2023-04-02T14:49:42.267Z,3.30
2023-04-02T14:52:51.724Z,2.12
2023-04-02T14:55:57.383Z,2.60
2023-04-02T14:59:38.048Z,2.95
2023-04-02T15:02:45.047Z,2.93
2023-04-02T15:06:01.039Z,2.62
2023-04-02T15:09:26.065Z,2.78
2023-04-02T15:12:35.911Z,3.00
2023-04-02T15:15:45.147Z,2.42
2023-04-02T15:18:53.645Z,1.77
2023-04-02T15:22:33.518Z,1.20
2023-04-02T15:25:49.680Z,0.98
2023-04-02T15:29:01.634Z,0.95
2023-04-02T15:32:34.428Z,0.70
2023-04-02T15:35:55.658Z,0.87
2023-04-02T15:39:18.678Z,0.70
2023-04-02T15:42:24.110Z,1.00
2023-04-02T15:45:48.552Z,0.98
2023-04-02T15:49:22.003Z,0.75
2023-04-02T15:52:46.126Z,0.90
2023-04-02T15:56:17.552Z,1.20
2023-04-02T15:59:46.909Z,1.55
2023-04-02T16:03:17.720Z,1.00
2023-04-02T16:06:29.193Z,0.73
2023-04-02T16:10:01.133Z,1.03
2023-04-02T16:13:29.830Z,2.47
2023-04-02T16:16:39.312Z,2.53
2023-04-02T16:20:20.931Z,3.12
2023-04-02T16:23:39.346Z,2.70
2023-04-02T16:27:15.750Z,2.73
2023-04-02T16:30:46.412Z,2.50
2023-04-02T16:33:54.930Z,2.83
2023-04-02T16:37:12.703Z,2.85
2023-04-02T16:41:07.027Z,2.20
2023-04-02T16:44:40.737Z,2.67
2023-04-02T16:48:04.769Z,2.70
2023-04-02T16:51:20.735Z,2.92
2023-04-02T16:54:55.452Z,2.12
2023-04-02T16:58:34.455Z,2.72
2023-04-02T17:02:04.682Z,2.40
2023-04-02T17:05:26.683Z,2.55
2023-04-02T17:08:44.355Z,2.40
2023-04-02T17:12:04.788Z,2.67
2023-04-02T17:15:26.643Z,3.20
2023-04-02T17:18:36.472Z,3.73
2023-04-02T17:21:45.835Z,2.85
2023-04-02T17:25:01.075Z,3.80
2023-04-02T17:28:13.242Z,3.45
2023-04-02T17:31:31.286Z,3.65
2023-04-02T17:34:37.925Z,2.77
2023-04-02T17:37:50.497Z,3.53
2023-04-02T17:41:19.099Z,3.35
2023-04-02T17:44:58.631Z,2.65
2023-04-02T17:48:32.473Z,3.08
2023-04-02T17:51:58.438Z,2.93
2023-04-02T17:55:07.698Z,2.70
2023-04-02T17:58:38.662Z,2.70
2023-04-02T18:02:03.080Z,3.70
2023-04-02T18:05:17.816Z,3.03
2023-04-02T18:08:48.173Z,3.47
2023-04-02T18:12:14.712Z,3.25
2023-04-02T18:15:52.549Z,3.08
2023-04-02T18:19:12.189Z,3.92
2023-04-02T18:22:34.300Z,4.10
2023-04-02T18:25:56.983Z,2.87
2023-04-02T18:29:51.877Z,3.28
2023-04-02T18:33:48.098Z,4.90
2023-04-02T18:37:14.234Z,4.85
2023-04-02T18:40:25.008Z,4.90
2023-04-02T18:43:59.234Z,3.50
2023-04-02T18:47:24.028Z,5.80
2023-04-02T18:50:35.936Z,5.35
2023-04-02T18:53:43.273Z,4.45
2023-04-02T18:56:47.455Z,5.22
2023-04-02T19:00:05.309Z,5.07
2023-04-02T19:03:30.229Z,3.97
2023-04-02T19:06:44.613Z,3.42
2023-04-02T19:09:50.208Z,3.53
2023-04-02T19:12:56.646Z,6.05
2023-04-02T19:16:09.352Z,5.10
2023-04-02T19:19:27.297Z,4.97
2023-04-02T19:22:44.217Z,4.45
2023-04-02T19:26:02.520Z,4.70
2023-04-02T19:29:34.540Z,3.65
2023-04-02T19:32:57.028Z,5.03
2023-04-02T19:36:18.425Z,5.12
2023-04-02T19:39:47.467Z,5.85
2023-04-02T19:42:56.242Z,5.40
2023-04-02T19:46:05.820Z,4.55
2023-04-02T19:49:13.566Z,4.33
2023-04-02T19:52:18.500Z,3.58
2023-04-02T19:55:27.659Z,5.00
2023-04-02T19:58:36.146Z,5.25
2023-04-02T20:01:39.403Z,5.00
2023-04-02T20:04:44.809Z,4.33
2023-04-02T20:07:51.411Z,4.43
2023-04-02T20:10:58.933Z,4.47
2023-04-02T20:14:02.901Z,5.80
2023-04-02T20:17:06.572Z,6.07
2023-04-02T20:20:11.296Z,6.53
2023-04-02T20:23:19.284Z,3.70
2023-04-02T20:26:23.993Z,5.30
2023-04-02T20:29:29.719Z,5.93
2023-04-02T20:32:32.762Z,6.47
2023-04-02T20:36:01.735Z,5.97
2023-04-02T20:39:08.366Z,5.80
2023-04-02T20:42:11.407Z,4.53
2023-04-02T20:45:14.697Z,5.05
2023-04-02T20:48:18.447Z,4.82
2023-04-02T20:51:43.301Z,4.50
2023-04-02T20:55:04.714Z,5.72
2023-04-02T20:58:07.898Z,5.87
2023-04-02T21:01:21.094Z,5.03
2023-04-02T21:04:24.237Z,5.60
2023-04-02T21:07:26.808Z,5.30
2023-04-02T21:10:29.728Z,6.15
2023-04-02T21:13:38.820Z,5.25
2023-04-02T21:16:42.245Z,4.62
2023-04-02T21:19:44.905Z,3.33
2023-04-02T21:22:47.894Z,4.90
2023-04-02T21:26:06.405Z,5.25
2023-04-02T21:29:12.036Z,5.35
2023-04-02T21:32:21.739Z,4.80
2023-04-02T21:35:25.373Z,3.65
2023-04-02T21:38:31.322Z,4.17
2023-04-02T21:41:39.579Z,6.12
2023-04-02T21:44:44.566Z,4.65
2023-04-02T21:47:47.545Z,4.53
2023-04-02T21:50:50.205Z,3.92
2023-04-02T21:53:56.400Z,3.47
2023-04-02T21:57:02.431Z,3.42
2023-04-02T22:00:09.321Z,3.90
2023-04-02T22:03:18.430Z,4.55
2023-04-02T22:06:30.460Z,4.78
2023-04-02T22:09:33.370Z,4.60
2023-04-02T22:12:35.994Z,4.75
2023-04-02T22:15:38.858Z,4.15
2023-04-02T22:18:42.441Z,4.10
2023-04-02T22:21:46.399Z,4.45
2023-04-02T22:24:49.056Z,4.47
2023-04-02T22:27:53.920Z,4.03
2023-04-02T22:31:06.814Z,5.30
2023-04-02T22:34:09.857Z,4.45
2023-04-02T22:37:12.645Z,3.40
2023-04-02T22:40:15.630Z,4.23
2023-04-02T22:43:18.179Z,3.80
2023-04-02T22:46:21.845Z,4.70
2023-04-02T22:49:24.410Z,3.75
2023-04-02T22:52:27.297Z,3.40
2023-04-02T22:55:30.019Z,5.10
2023-04-02T22:58:33.590Z,4.50
2023-04-02T23:01:36.978Z,4.40
2023-04-02T23:04:40.170Z,4.07
2023-04-02T23:07:42.869Z,2.70
2023-04-02T23:10:45.880Z,4.23
2023-04-02T23:13:50.538Z,4.05
2023-04-02T23:16:53.441Z,4.53
2023-04-02T23:19:56.117Z,3.90
2023-04-02T23:22:59.078Z,2.87
2023-04-02T23:26:08.913Z,4.03
2023-04-02T23:29:13.172Z,3.47
2023-04-02T23:32:16.638Z,4.43
2023-04-02T23:35:19.592Z,3.85
2023-04-02T23:38:22.148Z,4.07
2023-04-02T23:41:27.188Z,3.73
2023-04-02T23:44:29.894Z,4.20
2023-04-02T23:47:32.983Z,3.70
2023-04-02T23:50:38.519Z,3.85
2023-04-02T23:53:42.567Z,2.78
2023-04-02T23:56:45.398Z,4.57
2023-04-02T23:59:48.385Z,3.92
